createdAt,value
2023-04-29T00:00:36.038Z,1525.00
2023-04-29T00:01:36.059Z,1539.00
2023-04-29T00:02:36.198Z,1530.00
2023-04-29T00:03:36.179Z,1522.00
2023-04-29T00:04:36.127Z,1525.00
2023-04-29T00:05:36.102Z,1525.00
2023-04-29T00:06:35.982Z,1531.00
2023-04-29T00:07:35.962Z,1520.00
2023-04-29T00:08:35.958Z,1530.00
2023-04-29T00:09:35.944Z,1515.00
2023-04-29T00:10:35.958Z,1514.00
2023-04-29T00:11:35.897Z,1517.00
2023-04-29T00:12:35.873Z,1516.00
2023-04-29T00:13:35.843Z,1511.00
2023-04-29T00:14:35.824Z,1507.00
2023-04-29T00:15:35.815Z,1513.00
2023-04-29T00:16:35.862Z,1505.00
2023-04-29T00:17:35.833Z,1527.00
2023-04-29T00:18:35.789Z,1517.00
2023-04-29T00:19:35.763Z,1514.00
2023-04-29T00:20:35.750Z,1489.00
2023-04-29T00:21:35.731Z,1508.00
2023-04-29T00:22:35.708Z,1501.00
2023-04-29T00:23:35.687Z,1505.00
2023-04-29T00:24:35.675Z,1494.00
2023-04-29T00:25:35.621Z,1496.00
2023-04-29T00:26:35.600Z,1499.00
2023-04-29T00:27:35.591Z,1488.00
2023-04-29T00:28:35.589Z,1484.00
2023-04-29T00:29:35.570Z,1493.00
2023-04-29T00:30:35.668Z,1486.00
2023-04-29T00:31:35.603Z,1487.00
2023-04-29T00:32:35.539Z,1485.00
2023-04-29T00:33:35.493Z,1481.00
2023-04-29T00:34:35.462Z,1493.00
2023-04-29T00:35:35.434Z,1482.00
2023-04-29T00:36:35.401Z,1473.00
2023-04-29T00:37:35.383Z,1488.00
2023-04-29T00:38:35.389Z,1472.00
2023-04-29T00:39:35.340Z,1485.00
2023-04-29T00:40:35.316Z,1476.00
2023-04-29T00:41:35.311Z,1474.00
2023-04-29T00:42:35.260Z,1473.00
2023-04-29T00:43:35.221Z,1486.00
2023-04-29T00:44:35.204Z,1464.00
2023-04-29T00:45:35.197Z,1475.00
2023-04-29T00:46:35.232Z,1476.00
2023-04-29T00:47:35.174Z,1481.00
2023-04-29T00:48:35.123Z,1465.00
2023-04-29T00:49:35.098Z,1466.00
2023-04-29T00:50:35.087Z,1467.00
2023-04-29T00:51:35.057Z,1453.00
2023-04-29T00:52:35.062Z,1453.00
2023-04-29T00:53:35.064Z,1457.00
2023-04-29T00:54:35.036Z,1466.00
2023-04-29T00:55:35.052Z,1471.00
2023-04-29T00:56:35.039Z,1453.00
2023-04-29T00:57:35.027Z,1450.00
2023-04-29T00:58:35.018Z,1454.00
2023-04-29T00:59:35.052Z,1452.00
2023-04-29T01:00:35.038Z,1468.00
2023-04-29T01:01:35.005Z,1447.00
2023-04-29T01:02:35.072Z,1450.00
2023-04-29T01:03:35.169Z,1438.00
2023-04-29T01:04:35.104Z,1452.00
2023-04-29T01:05:34.920Z,1439.00
2023-04-29T01:06:34.881Z,1441.00
2023-04-29T01:07:34.862Z,1442.00
2023-04-29T01:08:34.817Z,1445.00
2023-04-29T01:09:34.793Z,1445.00
2023-04-29T01:10:34.769Z,1445.00
2023-04-29T01:11:34.780Z,1445.00
2023-04-29T01:12:34.719Z,1441.00
2023-04-29T01:13:34.688Z,1440.00
2023-04-29T01:14:34.664Z,1444.00
2023-04-29T01:15:34.646Z,1440.00
2023-04-29T01:16:34.737Z,1436.00
2023-04-29T01:17:34.635Z,1442.00
2023-04-29T01:18:34.589Z,1440.00
2023-04-29T01:19:34.565Z,1437.00
2023-04-29T01:20:34.524Z,1445.00
2023-04-29T01:21:34.521Z,1432.00
2023-04-29T01:22:34.502Z,1424.00
2023-04-29T01:23:34.464Z,1425.00
2023-04-29T01:24:34.451Z,1421.00
2023-04-29T01:25:34.440Z,1434.00
2023-04-29T01:26:34.406Z,1424.00
2023-04-29T01:27:34.387Z,1412.00
2023-04-29T01:28:34.382Z,1423.00
2023-04-29T01:29:34.350Z,1410.00
2023-04-29T01:30:34.350Z,1406.00
2023-04-29T01:31:34.329Z,1404.00
2023-04-29T01:32:34.756Z,1411.00
2023-04-29T01:33:34.250Z,1409.00
2023-04-29T01:34:34.228Z,1421.00
2023-04-29T01:35:34.210Z,1419.00
2023-04-29T01:36:34.202Z,1412.00
2023-04-29T01:37:34.181Z,1412.00
2023-04-29T01:38:34.178Z,1403.00
2023-04-29T01:39:34.135Z,1418.00
2023-04-29T01:40:34.141Z,1399.00
2023-04-29T01:41:34.117Z,1398.00
2023-04-29T01:42:34.124Z,1392.00
2023-04-29T01:43:34.071Z,1393.00
2023-04-29T01:44:34.065Z,1395.00
2023-04-29T01:45:34.062Z,1396.00
2023-04-29T01:46:34.080Z,1395.00
2023-04-29T01:47:34.080Z,1408.00
2023-04-29T01:48:33.989Z,1403.00
2023-04-29T01:49:33.958Z,1404.00
2023-04-29T01:50:33.925Z,1411.00
2023-04-29T01:51:33.918Z,1392.00
2023-04-29T01:52:33.895Z,1392.00
2023-04-29T01:53:33.866Z,1391.00
2023-04-29T01:54:33.842Z,1399.00
2023-04-29T01:55:33.833Z,1399.00
2023-04-29T01:56:33.813Z,1403.00
2023-04-29T01:57:33.775Z,1389.00
2023-04-29T01:58:33.760Z,1380.00
2023-04-29T01:59:33.745Z,1377.00
2023-04-29T02:00:33.718Z,1400.00
2023-04-29T02:01:33.699Z,1383.00
2023-04-29T02:02:33.794Z,1387.00
2023-04-29T02:03:33.822Z,1389.00
2023-04-29T02:04:33.687Z,1376.00
2023-04-29T02:05:33.604Z,1373.00
2023-04-29T02:06:33.591Z,1374.00
2023-04-29T02:07:33.555Z,1383.00
2023-04-29T02:08:33.537Z,1388.00
2023-04-29T02:09:33.516Z,1376.00
2023-04-29T02:10:33.511Z,1371.00
2023-04-29T02:11:33.476Z,1356.00
2023-04-29T02:12:33.446Z,1365.00
2023-04-29T02:13:33.425Z,1371.00
2023-04-29T02:14:34.566Z,1369.00
2023-04-29T02:15:33.366Z,1366.00
2023-04-29T02:16:33.379Z,1369.00
2023-04-29T02:17:33.345Z,1364.00
2023-04-29T02:18:33.293Z,1376.00
2023-04-29T02:19:33.283Z,1353.00
2023-04-29T02:20:33.240Z,1349.00
2023-04-29T02:21:33.234Z,1351.00
2023-04-29T02:22:33.192Z,1357.00
2023-04-29T02:23:33.173Z,1365.00
2023-04-29T02:24:33.142Z,1360.00
2023-04-29T02:25:33.124Z,1353.00
2023-04-29T02:26:33.099Z,1343.00
2023-04-29T02:27:33.070Z,1338.00
2023-04-29T02:28:33.049Z,1347.00
2023-04-29T02:29:33.017Z,1346.00
2023-04-29T02:30:33.009Z,1341.00
2023-04-29T02:31:32.987Z,1357.00
2023-04-29T02:32:32.959Z,1353.00
2023-04-29T02:33:32.913Z,1348.00
2023-04-29T02:34:32.881Z,1339.00
2023-04-29T02:35:32.863Z,1353.00
2023-04-29T02:36:32.882Z,1331.00
2023-04-29T02:37:32.815Z,1340.00
2023-04-29T02:38:32.773Z,1327.00
2023-04-29T02:39:32.755Z,1333.00
2023-04-29T02:40:32.728Z,1337.00
2023-04-29T02:41:32.698Z,1340.00
2023-04-29T02:42:32.659Z,1338.00
2023-04-29T02:43:32.663Z,1333.00
2023-04-29T02:44:32.615Z,1330.00
2023-04-29T02:45:32.622Z,1334.00
2023-04-29T02:46:32.560Z,1331.00
2023-04-29T02:47:32.545Z,1331.00
2023-04-29T02:48:32.501Z,1328.00
2023-04-29T02:49:32.489Z,1323.00
2023-04-29T02:50:32.466Z,1306.00
2023-04-29T02:51:32.434Z,1323.00
2023-04-29T02:52:32.404Z,1321.00
2023-04-29T02:53:32.450Z,1323.00
2023-04-29T02:54:32.363Z,1326.00
2023-04-29T02:55:32.337Z,1320.00
2023-04-29T02:56:32.364Z,1322.00
2023-04-29T02:57:32.307Z,1314.00
2023-04-29T02:58:32.262Z,1306.00
2023-04-29T02:59:32.228Z,1314.00
2023-04-29T03:00:32.211Z,1299.00
2023-04-29T03:01:32.265Z,1305.00
2023-04-29T03:02:32.271Z,1309.00
2023-04-29T03:03:32.319Z,1300.00
2023-04-29T03:04:32.143Z,1310.00
2023-04-29T03:05:32.082Z,1307.00
2023-04-29T03:06:32.058Z,1306.00
2023-04-29T03:07:32.045Z,1298.00
2023-04-29T03:08:32.016Z,1302.00
2023-04-29T03:09:31.981Z,1299.00
2023-04-29T03:10:31.946Z,1285.00
2023-04-29T03:11:31.929Z,1287.00
2023-04-29T03:12:31.891Z,1292.00
2023-04-29T03:13:31.872Z,1293.00
2023-04-29T03:14:31.858Z,1295.00
2023-04-29T03:15:31.817Z,1298.00
2023-04-29T03:16:31.833Z,1287.00
2023-04-29T03:17:31.771Z,1292.00
2023-04-29T03:18:31.719Z,1291.00
2023-04-29T03:19:31.692Z,1294.00
2023-04-29T03:20:31.664Z,1298.00
2023-04-29T03:21:31.632Z,1291.00
2023-04-29T03:22:31.660Z,1289.00
2023-04-29T03:23:31.569Z,1294.00
2023-04-29T03:24:31.541Z,1300.00
2023-04-29T03:25:31.525Z,1277.00
2023-04-29T03:26:31.502Z,1282.00
2023-04-29T03:27:31.493Z,1287.00
2023-04-29T03:28:31.456Z,1295.00
2023-04-29T03:29:31.429Z,1284.00
2023-04-29T03:30:31.395Z,1284.00
2023-04-29T03:31:31.395Z,1281.00
2023-04-29T03:32:31.373Z,1284.00
2023-04-29T03:33:31.327Z,1269.00
2023-04-29T03:34:31.299Z,1277.00
2023-04-29T03:35:31.267Z,1281.00
2023-04-29T03:36:31.230Z,1277.00
2023-04-29T03:37:31.207Z,1278.00
2023-04-29T03:38:31.170Z,1271.00
2023-04-29T03:39:31.155Z,1281.00
2023-04-29T03:40:31.119Z,1261.00
2023-04-29T03:41:31.103Z,1277.00
2023-04-29T03:42:31.070Z,1275.00
2023-04-29T03:43:31.035Z,1268.00
2023-04-29T03:44:31.008Z,1271.00
2023-04-29T03:45:30.983Z,1257.00
2023-04-29T03:46:31.032Z,1275.00
2023-04-29T03:47:31.004Z,1265.00
2023-04-29T03:48:30.887Z,1266.00
2023-04-29T03:49:30.878Z,1266.00
2023-04-29T03:50:30.850Z,1267.00
2023-04-29T03:51:30.854Z,1277.00
2023-04-29T03:52:30.818Z,1262.00
2023-04-29T03:53:30.788Z,1249.00
2023-04-29T03:54:30.768Z,1252.00
2023-04-29T03:55:30.746Z,1273.00
2023-04-29T03:56:30.710Z,1263.00
2023-04-29T03:57:30.699Z,1249.00
2023-04-29T03:58:30.680Z,1253.00
2023-04-29T03:59:30.657Z,1241.00
2023-04-29T04:00:30.600Z,1259.00
2023-04-29T04:01:30.594Z,1251.00
2023-04-29T04:02:30.692Z,1243.00
2023-04-29T04:03:30.673Z,1240.00
2023-04-29T04:04:30.662Z,1251.00
2023-04-29T04:05:30.515Z,1235.00
2023-04-29T04:06:30.456Z,1257.00
2023-04-29T04:07:30.446Z,1245.00
2023-04-29T04:08:30.402Z,1252.00
2023-04-29T04:09:30.389Z,1239.00
2023-04-29T04:10:30.390Z,1231.00
2023-04-29T04:11:30.406Z,1241.00
2023-04-29T04:12:30.411Z,1235.00
2023-04-29T04:13:30.398Z,1236.00
2023-04-29T04:14:30.369Z,1237.00
2023-04-29T04:15:30.353Z,1238.00
2023-04-29T04:16:30.364Z,1239.00
2023-04-29T04:17:30.301Z,1244.00
2023-04-29T04:18:30.284Z,1238.00
2023-04-29T04:19:30.259Z,1216.00
2023-04-29T04:20:30.244Z,1223.00
2023-04-29T04:21:30.225Z,1227.00
2023-04-29T04:22:30.191Z,1229.00
2023-04-29T04:23:30.179Z,1230.00
2023-04-29T04:24:30.141Z,1227.00
2023-04-29T04:25:30.122Z,1224.00
2023-04-29T04:26:30.100Z,1214.00
2023-04-29T04:27:30.090Z,1227.00
2023-04-29T04:28:30.068Z,1225.00
2023-04-29T04:29:30.053Z,1233.00
2023-04-29T04:30:30.001Z,1204.00
2023-04-29T04:31:30.144Z,1216.00
2023-04-29T04:32:30.054Z,1226.00
2023-04-29T04:33:29.957Z,1226.00
2023-04-29T04:34:29.940Z,1226.00
2023-04-29T04:35:29.913Z,1222.00
2023-04-29T04:36:29.897Z,1210.00
2023-04-29T04:37:29.883Z,1211.00
2023-04-29T04:38:29.854Z,1226.00
2023-04-29T04:39:29.837Z,1227.00
2023-04-29T04:40:29.821Z,1229.00
2023-04-29T04:41:29.786Z,1226.00
2023-04-29T04:42:29.759Z,1226.00
2023-04-29T04:43:29.724Z,1227.00
2023-04-29T04:44:29.703Z,1225.00
2023-04-29T04:45:29.696Z,1231.00
2023-04-29T04:46:29.663Z,1226.00
2023-04-29T04:47:29.703Z,1216.00
2023-04-29T04:48:29.626Z,1211.00
2023-04-29T04:49:29.604Z,1213.00
2023-04-29T04:50:29.593Z,1216.00
2023-04-29T04:51:29.572Z,1200.00
2023-04-29T04:52:29.548Z,1209.00
2023-04-29T04:53:29.527Z,1209.00
2023-04-29T04:54:29.493Z,1211.00
2023-04-29T04:55:29.474Z,1206.00
2023-04-29T04:56:29.470Z,1218.00
2023-04-29T04:57:29.452Z,1210.00
2023-04-29T04:58:29.434Z,1201.00
2023-04-29T04:59:29.416Z,1199.00
2023-04-29T05:00:29.404Z,1206.00
2023-04-29T05:01:29.423Z,1208.00
2023-04-29T05:02:29.497Z,1203.00
2023-04-29T05:03:29.461Z,1192.00
2023-04-29T05:04:29.407Z,1191.00
2023-04-29T05:05:29.286Z,1190.00
2023-04-29T05:06:29.285Z,1181.00
2023-04-29T05:07:29.288Z,1180.00
2023-04-29T05:08:29.210Z,1189.00
2023-04-29T05:09:29.195Z,1190.00
2023-04-29T05:10:29.157Z,1191.00
2023-04-29T05:11:29.149Z,1195.00
2023-04-29T05:12:29.111Z,1189.00
2023-04-29T05:13:29.112Z,1182.00
2023-04-29T05:14:29.061Z,1200.00
2023-04-29T05:15:29.039Z,1183.00
2023-04-29T05:16:29.074Z,1181.00
2023-04-29T05:17:29.086Z,1182.00
2023-04-29T05:18:28.958Z,1177.00
2023-04-29T05:19:28.934Z,1171.00
2023-04-29T05:20:28.899Z,1171.00
2023-04-29T05:21:28.871Z,1179.00
2023-04-29T05:22:28.835Z,1174.00
2023-04-29T05:23:28.814Z,1171.00
2023-04-29T05:24:28.792Z,1169.00
2023-04-29T05:25:28.762Z,1168.00
2023-04-29T05:26:28.738Z,1162.00
2023-04-29T05:27:28.789Z,1148.00
2023-04-29T05:28:28.700Z,1165.00
2023-04-29T05:29:28.663Z,1156.00
2023-04-29T05:30:28.675Z,1159.00
2023-04-29T05:31:28.824Z,1159.00
2023-04-29T05:32:28.717Z,1165.00
2023-04-29T05:33:28.674Z,1156.00
2023-04-29T05:34:28.686Z,1171.00
2023-04-29T05:35:28.685Z,1159.00
2023-04-29T05:36:28.691Z,1147.00
2023-04-29T05:37:28.708Z,1140.00
2023-04-29T05:38:28.705Z,1143.00
2023-04-29T05:39:28.706Z,1155.00
2023-04-29T05:40:28.714Z,1138.00
2023-04-29T05:41:28.716Z,1149.00
2023-04-29T05:42:28.732Z,1141.00
2023-04-29T05:43:28.715Z,1137.00
2023-04-29T05:44:28.752Z,1134.00
2023-04-29T05:45:28.723Z,1135.00
2023-04-29T05:46:28.769Z,1144.00
2023-04-29T05:47:28.779Z,1134.00
2023-04-29T05:48:28.718Z,1137.00
2023-04-29T05:49:28.726Z,1142.00
2023-04-29T05:50:28.694Z,1128.00
2023-04-29T05:51:28.682Z,1138.00
2023-04-29T05:52:28.676Z,1125.00
2023-04-29T05:53:28.670Z,1129.00
2023-04-29T05:54:28.649Z,1126.00
2023-04-29T05:55:28.633Z,1127.00
2023-04-29T05:56:28.626Z,1126.00
2023-04-29T05:57:28.612Z,1121.00
2023-04-29T05:58:28.585Z,1101.00
2023-04-29T05:59:28.569Z,1126.00
2023-04-29T06:00:28.555Z,1113.00
2023-04-29T06:01:28.545Z,1118.00
2023-04-29T06:02:28.742Z,1113.00
2023-04-29T06:03:28.691Z,1112.00
2023-04-29T06:04:28.761Z,1110.00
2023-04-29T06:05:28.886Z,1120.00
2023-04-29T06:06:28.642Z,1105.00
2023-04-29T06:07:28.449Z,1107.00
2023-04-29T06:08:28.432Z,1107.00
2023-04-29T06:09:28.580Z,1108.00
2023-04-29T06:10:28.463Z,1112.00
2023-04-29T06:11:28.419Z,1110.00
2023-04-29T06:12:28.461Z,1115.00
2023-04-29T06:13:28.360Z,1108.00
2023-04-29T06:14:28.340Z,1094.00
2023-04-29T06:15:28.288Z,1114.00
2023-04-29T06:16:28.314Z,1095.00
2023-04-29T06:17:28.271Z,1103.00
2023-04-29T06:18:28.232Z,1090.00
2023-04-29T06:19:28.217Z,1106.00
2023-04-29T06:20:28.256Z,1092.00
2023-04-29T06:21:28.187Z,1081.00
2023-04-29T06:22:28.164Z,1098.00
2023-04-29T06:23:28.165Z,1088.00
2023-04-29T06:24:28.127Z,1086.00
2023-04-29T06:25:28.099Z,1097.00
2023-04-29T06:26:28.181Z,1082.00
2023-04-29T06:27:28.135Z,1082.00
2023-04-29T06:28:28.038Z,1072.00
2023-04-29T06:29:28.015Z,1074.00
2023-04-29T06:30:28.060Z,1074.00
2023-04-29T06:31:27.993Z,1076.00
2023-04-29T06:32:28.032Z,1071.00
2023-04-29T06:33:27.951Z,1067.00
2023-04-29T06:34:27.923Z,1072.00
2023-04-29T06:35:27.903Z,1071.00
2023-04-29T06:36:27.876Z,1082.00
2023-04-29T06:37:27.849Z,1082.00
2023-04-29T06:38:27.836Z,1082.00
2023-04-29T06:39:27.820Z,1082.00
2023-04-29T06:40:27.808Z,1064.00
2023-04-29T06:41:27.738Z,1078.00
2023-04-29T06:42:27.716Z,1058.00
2023-04-29T06:43:27.689Z,1061.00
2023-04-29T06:44:27.705Z,1064.00
2023-04-29T06:45:27.649Z,1057.00
2023-04-29T06:46:27.623Z,1050.00
2023-04-29T06:47:27.619Z,1049.00
2023-04-29T06:48:27.555Z,1047.00
2023-04-29T06:49:27.523Z,1045.00
2023-04-29T06:50:27.509Z,1045.00
2023-04-29T06:51:27.479Z,1047.00
2023-04-29T06:52:27.447Z,1046.00
2023-04-29T06:53:27.416Z,1033.00
2023-04-29T06:54:27.384Z,1053.00
2023-04-29T06:55:27.358Z,1021.00
2023-04-29T06:56:27.345Z,1012.00
2023-04-29T06:57:27.316Z,1018.00
2023-04-29T06:58:27.285Z,1021.00
2023-04-29T06:59:27.258Z,1008.00
2023-04-29T07:00:27.258Z,1007.00
2023-04-29T07:01:27.282Z,1007.00
2023-04-29T07:02:27.370Z,1004.00
2023-04-29T07:03:27.323Z,1009.00
2023-04-29T07:04:27.333Z,990.00
2023-04-29T07:05:27.324Z,1007.00
2023-04-29T07:06:27.346Z,997.00
2023-04-29T07:07:27.345Z,1010.00
2023-04-29T07:08:27.358Z,997.00
2023-04-29T07:09:27.375Z,994.00
2023-04-29T07:10:27.410Z,1010.00
2023-04-29T07:11:27.432Z,1004.00
2023-04-29T07:12:27.436Z,986.00
2023-04-29T07:13:27.456Z,993.00
2023-04-29T07:14:27.471Z,990.00
2023-04-29T07:15:27.508Z,991.00
2023-04-29T07:16:27.578Z,988.00
2023-04-29T07:17:27.609Z,990.00
2023-04-29T07:18:27.588Z,990.00
2023-04-29T07:19:27.600Z,986.00
2023-04-29T07:20:27.645Z,983.00
2023-04-29T07:21:27.673Z,976.00
2023-04-29T07:22:27.729Z,992.00
2023-04-29T07:23:27.746Z,989.00
2023-04-29T07:24:27.788Z,985.00
2023-04-29T07:25:27.836Z,1008.00
2023-04-29T07:26:27.835Z,995.00
2023-04-29T07:27:27.866Z,988.00
2023-04-29T07:28:27.824Z,989.00
2023-04-29T07:29:27.800Z,990.00
2023-04-29T07:30:27.772Z,991.00
2023-04-29T07:31:27.824Z,989.00
2023-04-29T07:32:27.761Z,986.00
2023-04-29T07:33:27.692Z,976.00
2023-04-29T07:34:27.676Z,979.00
2023-04-29T07:35:27.661Z,980.00
2023-04-29T07:36:27.657Z,981.00
2023-04-29T07:37:27.677Z,971.00
2023-04-29T07:38:27.701Z,967.00
2023-04-29T07:39:27.733Z,966.00
2023-04-29T07:40:27.763Z,966.00
2023-04-29T07:41:27.771Z,973.00
2023-04-29T07:42:27.815Z,973.00
2023-04-29T07:43:27.847Z,971.00
2023-04-29T07:44:27.899Z,959.00
2023-04-29T07:45:27.922Z,965.00
2023-04-29T07:46:27.978Z,960.00
2023-04-29T07:47:28.011Z,963.00
2023-04-29T07:48:28.033Z,955.00
2023-04-29T07:49:28.069Z,961.00
2023-04-29T07:50:28.112Z,967.00
2023-04-29T07:51:28.161Z,959.00
2023-04-29T07:52:28.200Z,951.00
2023-04-29T07:53:28.240Z,955.00
2023-04-29T07:54:28.275Z,948.00
2023-04-29T07:55:28.331Z,955.00
2023-04-29T07:56:28.354Z,952.00
2023-04-29T07:57:28.390Z,961.00
2023-04-29T07:58:28.425Z,966.00
2023-04-29T07:59:28.468Z,963.00
2023-04-29T08:00:28.506Z,938.00
2023-04-29T08:01:28.549Z,929.00
2023-04-29T08:02:28.685Z,914.00
2023-04-29T08:03:28.705Z,873.00
2023-04-29T08:04:28.814Z,898.00
2023-04-29T08:05:29.050Z,877.00
2023-04-29T08:06:28.711Z,881.00
2023-04-29T08:07:28.748Z,854.00
2023-04-29T08:08:28.846Z,846.00
2023-04-29T08:09:28.813Z,843.00
2023-04-29T08:10:28.866Z,832.00
2023-04-29T08:11:28.879Z,838.00
2023-04-29T08:12:28.921Z,845.00
2023-04-29T08:13:28.958Z,815.00
2023-04-29T08:14:29.106Z,806.00
2023-04-29T08:15:29.054Z,814.00
2023-04-29T08:16:29.083Z,798.00
2023-04-29T08:17:29.080Z,799.00
2023-04-29T08:18:29.101Z,782.00
2023-04-29T08:19:29.144Z,706.00
2023-04-29T08:20:29.216Z,734.00
2023-04-29T08:21:29.273Z,707.00
2023-04-29T08:22:29.267Z,667.00
2023-04-29T08:23:29.252Z,652.00
2023-04-29T08:24:29.364Z,654.00
2023-04-29T08:25:29.337Z,663.00
2023-04-29T08:26:29.367Z,652.00
2023-04-29T08:27:29.397Z,652.00
2023-04-29T08:28:29.618Z,657.00
2023-04-29T08:29:29.384Z,648.00
2023-04-29T08:30:29.502Z,641.00
2023-04-29T08:31:29.556Z,637.00
2023-04-29T08:32:29.576Z,642.00
2023-04-29T08:33:29.531Z,629.00
2023-04-29T08:34:29.518Z,620.00
2023-04-29T08:35:29.581Z,623.00
2023-04-29T08:36:29.568Z,616.00
2023-04-29T08:37:29.615Z,612.00
2023-04-29T08:38:29.624Z,607.00
2023-04-29T08:39:29.630Z,595.00
2023-04-29T08:40:29.646Z,594.00
2023-04-29T08:41:29.664Z,590.00
2023-04-29T08:42:29.813Z,568.00
2023-04-29T08:43:29.727Z,560.00
2023-04-29T08:44:29.733Z,572.00
2023-04-29T08:45:29.784Z,558.00
2023-04-29T08:46:29.793Z,545.00
2023-04-29T08:47:29.866Z,552.00
2023-04-29T08:48:29.963Z,540.00
2023-04-29T08:49:29.852Z,523.00
2023-04-29T08:50:29.874Z,525.00
2023-04-29T08:51:29.916Z,514.00
2023-04-29T08:52:29.916Z,515.00
2023-04-29T08:53:29.942Z,512.00
2023-04-29T08:54:29.974Z,534.00
2023-04-29T08:55:29.991Z,548.00
2023-04-29T08:56:30.020Z,553.00
2023-04-29T08:57:30.023Z,551.00
2023-04-29T08:58:30.054Z,571.00
2023-04-29T08:59:30.054Z,566.00
2023-04-29T09:00:30.077Z,567.00
2023-04-29T09:01:30.127Z,583.00
2023-04-29T09:02:30.141Z,568.00
2023-04-29T09:03:30.174Z,580.00
2023-04-29T09:04:30.208Z,573.00
2023-04-29T09:05:30.105Z,573.00
2023-04-29T09:06:30.074Z,568.00
2023-04-29T09:07:30.048Z,575.00
2023-04-29T09:08:30.025Z,562.00
2023-04-29T09:09:29.974Z,555.00
2023-04-29T09:10:29.948Z,561.00
2023-04-29T09:11:29.922Z,555.00
2023-04-29T09:12:29.894Z,565.00
2023-04-29T09:13:29.894Z,555.00
2023-04-29T09:14:29.864Z,551.00
2023-04-29T09:15:29.818Z,551.00
2023-04-29T09:16:29.878Z,546.00
2023-04-29T09:17:29.816Z,552.00
2023-04-29T09:18:29.771Z,553.00
2023-04-29T09:19:29.775Z,554.00
2023-04-29T09:20:29.810Z,534.00
2023-04-29T09:21:29.790Z,536.00
2023-04-29T09:22:29.840Z,548.00
2023-04-29T09:23:29.832Z,545.00
2023-04-29T09:24:29.847Z,549.00
2023-04-29T09:25:29.870Z,531.00
2023-04-29T09:26:29.911Z,530.00
2023-04-29T09:27:29.885Z,539.00
2023-04-29T09:28:29.899Z,536.00
2023-04-29T09:29:29.856Z,535.00
2023-04-29T09:30:29.853Z,538.00
2023-04-29T09:31:29.824Z,543.00
2023-04-29T09:32:29.997Z,558.00
2023-04-29T09:33:29.699Z,556.00
2023-04-29T09:34:29.668Z,558.00
2023-04-29T09:35:29.631Z,553.00
2023-04-29T09:36:29.600Z,558.00
2023-04-29T09:37:29.554Z,544.00
2023-04-29T09:38:29.526Z,545.00
2023-04-29T09:39:29.485Z,545.00
2023-04-29T09:40:29.471Z,525.00
2023-04-29T09:41:29.407Z,517.00
2023-04-29T09:42:29.382Z,528.00
2023-04-29T09:43:29.368Z,533.00
2023-04-29T09:44:32.101Z,532.00
2023-04-29T09:45:29.293Z,522.00
2023-04-29T09:46:29.352Z,507.00
2023-04-29T09:47:29.270Z,504.00
2023-04-29T09:48:29.196Z,520.00
2023-04-29T09:49:29.177Z,515.00
2023-04-29T09:50:29.138Z,536.00
2023-04-29T09:51:29.106Z,540.00
2023-04-29T09:52:29.100Z,529.00
2023-04-29T09:53:29.080Z,536.00
2023-04-29T09:54:29.038Z,537.00
2023-04-29T09:55:29.006Z,541.00
2023-04-29T09:56:28.967Z,550.00
2023-04-29T09:57:28.941Z,542.00
2023-04-29T09:58:28.905Z,530.00
2023-04-29T09:59:28.876Z,513.00
2023-04-29T10:00:28.837Z,524.00
2023-04-29T10:01:28.849Z,510.00
2023-04-29T10:02:28.881Z,505.00
2023-04-29T10:03:28.900Z,498.00
2023-04-29T10:04:28.820Z,486.00
2023-04-29T10:05:28.752Z,465.00
2023-04-29T10:06:28.740Z,485.00
2023-04-29T10:07:28.698Z,501.00
2023-04-29T10:08:28.681Z,495.00
2023-04-29T10:09:28.648Z,518.00
2023-04-29T10:10:30.214Z,522.00
2023-04-29T10:11:28.590Z,509.00
2023-04-29T10:12:28.562Z,515.00
2023-04-29T10:13:28.533Z,514.00
2023-04-29T10:14:28.495Z,512.00
2023-04-29T10:15:28.472Z,503.00
2023-04-29T10:16:28.552Z,509.00
2023-04-29T10:17:28.419Z,530.00
2023-04-29T10:18:28.446Z,507.00
2023-04-29T10:19:28.477Z,516.00
2023-04-29T10:20:28.390Z,497.00
2023-04-29T10:21:28.397Z,522.00
2023-04-29T10:22:28.410Z,500.00
2023-04-29T10:23:28.434Z,522.00
2023-04-29T10:24:28.434Z,503.00
2023-04-29T10:25:28.439Z,513.00
2023-04-29T10:26:28.431Z,498.00
2023-04-29T10:27:28.433Z,504.00
2023-04-29T10:28:28.444Z,527.00
2023-04-29T10:29:28.451Z,535.00
2023-04-29T10:30:28.460Z,527.00
2023-04-29T10:31:28.553Z,529.00
2023-04-29T10:32:30.562Z,520.00
2023-04-29T10:33:29.466Z,520.00
2023-04-29T10:34:28.429Z,493.00
2023-04-29T10:35:28.368Z,491.00
2023-04-29T10:36:28.331Z,503.00
2023-04-29T10:37:28.304Z,513.00
2023-04-29T10:38:28.311Z,516.00
2023-04-29T10:39:28.236Z,505.00
2023-04-29T10:40:28.216Z,501.00
2023-04-29T10:41:28.172Z,513.00
2023-04-29T10:42:28.150Z,511.00
2023-04-29T10:43:28.140Z,514.00
2023-04-29T10:44:28.095Z,514.00
2023-04-29T10:45:28.064Z,510.00
2023-04-29T10:46:28.049Z,514.00
2023-04-29T10:47:28.045Z,526.00
2023-04-29T10:48:27.994Z,500.00
2023-04-29T10:49:28.003Z,512.00
2023-04-29T10:50:28.005Z,530.00
2023-04-29T10:51:28.008Z,525.00
2023-04-29T10:52:28.010Z,531.00
2023-04-29T10:53:28.050Z,536.00
2023-04-29T10:54:28.039Z,524.00
2023-04-29T10:55:28.046Z,533.00
2023-04-29T10:56:28.045Z,540.00
2023-04-29T10:57:28.046Z,556.00
2023-04-29T10:58:28.053Z,565.00
2023-04-29T10:59:28.120Z,583.00
2023-04-29T11:00:28.070Z,570.00
2023-04-29T11:01:28.073Z,601.00
2023-04-29T11:02:28.103Z,582.00
2023-04-29T11:03:28.130Z,600.00
2023-04-29T11:04:28.070Z,606.00
2023-04-29T11:05:28.069Z,615.00
2023-04-29T11:06:28.074Z,616.00
2023-04-29T11:07:28.133Z,611.00
2023-04-29T11:08:28.097Z,634.00
2023-04-29T11:09:28.104Z,641.00
2023-04-29T11:10:28.184Z,637.00
2023-04-29T11:11:28.417Z,649.00
2023-04-29T11:12:28.111Z,623.00
2023-04-29T11:13:28.114Z,628.00
2023-04-29T11:14:28.122Z,648.00
2023-04-29T11:15:28.119Z,637.00
2023-04-29T11:16:28.147Z,645.00
2023-04-29T11:17:28.501Z,661.00
2023-04-29T11:18:28.148Z,650.00
2023-04-29T11:19:28.128Z,647.00
2023-04-29T11:20:28.138Z,647.00
2023-04-29T11:21:28.142Z,666.00
2023-04-29T11:22:28.145Z,688.00
2023-04-29T11:23:28.600Z,674.00
2023-04-29T11:24:28.153Z,693.00
2023-04-29T11:25:28.166Z,681.00
2023-04-29T11:26:28.256Z,713.00
2023-04-29T11:27:28.171Z,665.00
2023-04-29T11:28:28.187Z,697.00
2023-04-29T11:29:28.195Z,676.00
2023-04-29T11:30:28.206Z,709.00
2023-04-29T11:31:28.851Z,699.00
2023-04-29T11:32:28.293Z,701.00
2023-04-29T11:33:28.317Z,714.00
2023-04-29T11:34:28.239Z,738.00
2023-04-29T11:35:28.257Z,705.00
2023-04-29T11:36:28.215Z,705.00
2023-04-29T11:37:28.180Z,707.00
2023-04-29T11:38:28.156Z,713.00
2023-04-29T11:39:28.137Z,715.00
2023-04-29T11:40:28.109Z,752.00
2023-04-29T11:41:28.071Z,729.00
2023-04-29T11:42:28.115Z,739.00
2023-04-29T11:43:28.039Z,705.00
2023-04-29T11:44:27.997Z,717.00
2023-04-29T11:45:27.966Z,702.00
2023-04-29T11:46:27.996Z,716.00
2023-04-29T11:47:27.956Z,748.00
2023-04-29T11:48:27.905Z,736.00
2023-04-29T11:49:27.841Z,715.00
2023-04-29T11:50:27.829Z,694.00
2023-04-29T11:51:27.800Z,724.00
2023-04-29T11:52:27.775Z,720.00
2023-04-29T11:53:27.794Z,695.00
2023-04-29T11:54:27.690Z,687.00
2023-04-29T11:55:27.668Z,678.00
2023-04-29T11:56:27.664Z,703.00
2023-04-29T11:57:27.674Z,741.00
2023-04-29T11:58:27.707Z,694.00
2023-04-29T11:59:27.662Z,711.00
2023-04-29T12:00:27.669Z,691.00
2023-04-29T12:01:27.667Z,720.00
2023-04-29T12:02:27.799Z,708.00
2023-04-29T12:03:27.859Z,738.00
2023-04-29T12:04:27.891Z,733.00
2023-04-29T12:05:27.671Z,697.00
2023-04-29T12:06:27.662Z,704.00
2023-04-29T12:07:27.655Z,734.00
2023-04-29T12:08:27.658Z,683.00
2023-04-29T12:09:27.657Z,707.00
2023-04-29T12:10:27.657Z,689.00
2023-04-29T12:11:27.658Z,685.00
2023-04-29T12:12:27.655Z,716.00
2023-04-29T12:13:27.648Z,683.00
2023-04-29T12:14:27.633Z,719.00
2023-04-29T12:15:27.558Z,702.00